EDT,Max TemperatureF,Mean TemperatureF,Min TemperatureF,Max Dew PointF,MeanDew PointF,Min DewpointF,Max Humidity, Mean Humidity, Min Humidity, Max Sea Level PressureIn, Mean Sea Level PressureIn, Min Sea Level PressureIn, Max VisibilityMiles, Mean VisibilityMiles, Min VisibilityMiles, Max Wind SpeedMPH, Mean Wind SpeedMPH, Max Gust SpeedMPH,PrecipitationIn, CloudCover, Events, WindDirDegrees
2012-10-1,88,79,69,76,73,70,100,81,61,29.84,29.80,29.77,10,9,6,18,8,23,T,5,Rain,134
2012-10-2,88,82,76,76,74,72,100,83,65,30.01,29.87,29.77,10,10,8,22,9,28,0.02,5,Rain,192
2012-10-3,83,78,72,75,70,66,94,76,58,30.21,30.10,30.00,10,10,10,12,5,15,0.01,7,Rain,214
2012-10-4,83,77,70,72,70,68,100,85,69,30.24,30.20,30.17,10,10,8,12,4,15,T,6,,330
2012-10-5,85,77,68,69,66,60,97,71,44,30.17,30.10,30.04,10,9,6,12,4,15,0.00,5,,50
2012-10-6,85,76,66,70,67,65,93,74,55,30.03,29.97,29.90,10,9,5,14,4,22,0.00,3,,203
2012-10-7,88,77,66,72,69,64,100,73,46,30.02,29.98,29.93,10,7,0,18,5,23,T,4,Fog,274
2012-10-8,66,60,54,60,57,52,93,86,78,30.11,30.06,30.02,10,9,1,18,10,22,0.84,8,Rain-Thunderstorm,15
2012-10-9,66,59,52,54,52,51,100,84,67,30.14,30.10,30.07,10,9,5,17,8,26,0.00,6,,356
2012-10-10,76,62,48,59,54,47,100,75,50,30.15,30.10,30.03,10,10,7,16,5,18,0.00,1,Fog,294
2012-10-11,75,65,54,57,52,47,93,68,43,30.28,30.21,30.13,10,10,9,16,5,21,0.00,0,,32
2012-10-12,81,66,51,59,55,50,100,71,42,30.26,30.20,30.15,10,10,9,10,3,16,0.00,2,Fog,19
2012-10-13,73,66,58,61,56,53,86,72,57,30.36,30.31,30.25,10,10,10,18,10,23,0.00,3,,48
2012-10-14,82,68,54,63,58,53,93,68,43,30.27,30.18,30.06,10,10,10,14,5,18,0.00,2,Fog,81
2012-10-15,83,72,60,68,64,58,100,81,62,30.03,29.89,29.78,10,10,10,16,6,21,T,3,Fog,244
2012-10-16,73,63,53,55,47,43,89,64,38,29.97,29.91,29.86,10,10,10,17,6,24,0.00,2,,11
2012-10-17,73,63,52,58,55,51,100,79,57,30.01,29.94,29.92,10,10,10,10,4,13,0.00,6,,53
2012-10-18,80,69,58,68,64,57,97,76,54,29.90,29.85,29.81,10,10,9,13,6,16,0.02,5,Rain,183
2012-10-19,78,67,56,70,54,41,97,62,27,29.86,29.81,29.76,10,10,10,18,8,23,T,3,Rain,259
2012-10-20,76,64,52,56,47,41,93,62,31,29.95,29.87,29.83,10,10,10,14,5,17,0.00,0,,258
2012-10-21,74,62,50,49,46,43,86,62,38,30.16,30.07,29.95,10,10,10,15,6,20,0.00,0,,15
2012-10-22,76,61,45,51,47,44,100,67,33,30.23,30.18,30.14,10,10,10,13,3,18,0.00,1,,47
2012-10-23,81,65,48,62,55,48,100,74,48,30.20,30.16,30.11,10,10,7,14,3,23,0.00,1,Fog,70
2012-10-24,82,70,57,64,60,57,100,76,51,30.18,30.13,30.08,10,8,2,12,5,20,0.00,2,Fog,46
2012-10-25,83,73,62,67,64,61,100,77,54,30.09,30.06,30.03,10,10,7,21,9,26,0.00,5,Fog,65
2012-10-26,80,73,66,66,62,59,93,74,54,30.01,29.89,29.78,10,10,9,24,14,29,0.00,7,,27
2012-10-27,69,67,64,63,61,55,93,81,68,29.75,29.61,29.55,10,10,10,28,18,36,0.17,8,Rain,359
2012-10-28,73,66,59,54,52,51,78,62,46,29.63,29.59,29.56,10,10,10,24,13,32,0.00,5,,329
2012-10-29,64,56,48,48,37,32,66,50,34,29.67,29.61,29.53,10,10,10,24,14,32,0.00,3,,301
2012-10-30,60,53,45,34,31,26,62,45,28,29.76,29.62,29.56,10,10,10,18,12,27,0.00,4,,261
2012-10-31,67,54,41,32,28,19,62,39,16,29.85,29.79,29.74,10,10,10,22,10,29,0.00,2,,257